Wilson Gaeta — 8PTS — position and weather

sailwx.info

Track history (hours):
 
Tides and Currents Weather Stations Pressure Air Temp Water Temp Dewpoint Dewpoint Depression Visibility Wind Speed Wind Dir Waves Ship Positions

Wilson Gaeta

Last reported at 2016-May-05 20:26 UTC. Time now 2016-May-05 21:55 UTC.
Position N 50°26' E 000°35'.

Length 88 m; draft 5.6 m.

Type: Cargo ship. MMSI: 314237000.

Date/timePositionNaut miles runAvg speedWind from/ knotsBaromVisibWave heightAir tempDewpointWater temp
2016-May-05 20:26N 50°26' E 000°35'1112.0
2016-May-05 19:33N 50°23' E 000°19'1212.0
2016-May-05 18:33N 50°20' E 000°01'1111.1
2016-May-05 17:33N 50°17' W 000°16'1110.5
2016-May-05 16:32N 50°14' W 000°32'17 8.7
2016-May-05 14:32N 50°10' W 000°58'7 6.8
2016-May-05 13:33N 50°08' W 001°08'6 6.2
2016-May-05 12:31N 50°06' W 001°18'6 6.1
2016-May-05 11:33N 50°05' W 001°27'7 7.3
2016-May-05 10:33N 50°03' W 001°38'9 8.8
2016-May-05 09:32N 50°00' W 001°51'1010.6
2016-May-05 08:33N 49°58' W 002°07'1211.8
2016-May-05 07:32N 49°55' W 002°25'1212.0
2016-May-05 06:33N 49°52' W 002°43'1211.9
2016-May-05 05:33N 49°47' W 002°60'1211.8
2016-May-05 04:33N 49°41' W 003°15'1111.5
2016-May-05 03:33N 49°35' W 003°31'1411.3
2016-May-05 02:16N 49°28' W 003°50'40 9.8
2016-May-04 22:09N 49°07' W 004°43'5 8.1
2016-May-04 21:33N 49°05' W 004°49'33 8.2
2016-May-04 17:33N 48°47' W 005°32'39 9.9
2016-May-04 13:33N 48°14' W 006°02'1111.0
2016-May-04 12:33N 48°04' W 006°10'2211.0
2016-May-04 10:33N 47°44' W 006°25'  
2016-May-01 16:32N 38°41' W 009°51'11 7.7
2016-May-01 15:04N 38°30' W 009°48'4 7.9
2016-May-01 14:30N 38°26' W 009°46'8 7.9
2016-May-01 13:32N 38°18' W 009°44'8 8.1
2016-May-01 12:33N 38°10' W 009°42'8 8.1
2016-May-01 11:33N 38°02' W 009°40'11 7.9
2016-May-01 10:14N 37°52' W 009°37'5 8.1
2016-May-01 09:33N 37°47' W 009°35'9 8.4
2016-May-01 08:31N 37°38' W 009°32'8 8.0
2016-May-01 07:32N 37°31' W 009°30'8 7.9
2016-May-01 06:33N 37°23' W 009°28'8 8.2
2016-May-01 05:33N 37°15' W 009°26'19 8.2
2016-May-01 03:12N 36°56' W 009°20'189 9.1
2016-Apr-30 06:30N 35°58' W 005°36'8 8.9
2016-Apr-30 05:34N 36°00' W 005°26'8 7.6
2016-Apr-30 04:34N 36°02' W 005°17'226 9.4
2016-Apr-29 04:33N 37°21' W 000°53'18210.1
2016-Apr-28 10:29N 39°54' E 001°13'1010.3
2016-Apr-28 09:33N 40°02' E 001°18'1010.5
2016-Apr-28 08:33N 40°11' E 001°25'1010.3
2016-Apr-28 07:33N 40°20' E 001°32'9 9.3
2016-Apr-28 06:33N 40°29' E 001°37'9 9.3
2016-Apr-28 05:33N 40°37' E 001°43'10 9.5
2016-Apr-28 04:32N 40°45' E 001°49'10 9.7
2016-Apr-28 03:33N 40°54' E 001°55'7 0.3
2016-Apr-27 00:25N 40°50' E 001°47'21 9.2
2016-Apr-26 22:11N 40°33' E 001°32'6 9.3
2016-Apr-26 21:33N 40°28' E 001°28'  
Track history (hours):
 
Tides and Currents Weather Stations Pressure Air Temp Water Temp Dewpoint Dewpoint Depression Visibility Wind Speed Wind Dir Waves Ship Positions

Wilson Gaeta

Last reported at 2016-May-05 20:26 UTC. Time now 2016-May-05 21:55 UTC.
Position N 50°26' E 000°35'.

Length 88 m; draft 5.6 m.

Type: Cargo ship. MMSI: 314237000.

Date/timePositionNaut miles runAvg speedWind from/ knotsBaromVisibWave heightAir tempDewpointWater temp
2016-May-05 20:26N 50°26' E 000°35'1112.0
2016-May-05 19:33N 50°23' E 000°19'1212.0
2016-May-05 18:33N 50°20' E 000°01'1111.1
2016-May-05 17:33N 50°17' W 000°16'1110.5
2016-May-05 16:32N 50°14' W 000°32'17 8.7
2016-May-05 14:32N 50°10' W 000°58'7 6.8
2016-May-05 13:33N 50°08' W 001°08'6 6.2
2016-May-05 12:31N 50°06' W 001°18'6 6.1
2016-May-05 11:33N 50°05' W 001°27'7 7.3
2016-May-05 10:33N 50°03' W 001°38'9 8.8
2016-May-05 09:32N 50°00' W 001°51'1010.6
2016-May-05 08:33N 49°58' W 002°07'1211.8
2016-May-05 07:32N 49°55' W 002°25'1212.0
2016-May-05 06:33N 49°52' W 002°43'1211.9
2016-May-05 05:33N 49°47' W 002°60'1211.8
2016-May-05 04:33N 49°41' W 003°15'1111.5
2016-May-05 03:33N 49°35' W 003°31'1411.3
2016-May-05 02:16N 49°28' W 003°50'40 9.8
2016-May-04 22:09N 49°07' W 004°43'5 8.1
2016-May-04 21:33N 49°05' W 004°49'33 8.2
2016-May-04 17:33N 48°47' W 005°32'39 9.9
2016-May-04 13:33N 48°14' W 006°02'1111.0
2016-May-04 12:33N 48°04' W 006°10'2211.0
2016-May-04 10:33N 47°44' W 006°25'  
2016-May-01 16:32N 38°41' W 009°51'11 7.7
2016-May-01 15:04N 38°30' W 009°48'4 7.9
2016-May-01 14:30N 38°26' W 009°46'8 7.9
2016-May-01 13:32N 38°18' W 009°44'8 8.1
2016-May-01 12:33N 38°10' W 009°42'8 8.1
2016-May-01 11:33N 38°02' W 009°40'11 7.9
2016-May-01 10:14N 37°52' W 009°37'5 8.1
2016-May-01 09:33N 37°47' W 009°35'9 8.4
2016-May-01 08:31N 37°38' W 009°32'8 8.0
2016-May-01 07:32N 37°31' W 009°30'8 7.9
2016-May-01 06:33N 37°23' W 009°28'8 8.2
2016-May-01 05:33N 37°15' W 009°26'19 8.2
2016-May-01 03:12N 36°56' W 009°20'189 9.1
2016-Apr-30 06:30N 35°58' W 005°36'8 8.9
2016-Apr-30 05:34N 36°00' W 005°26'8 7.6
2016-Apr-30 04:34N 36°02' W 005°17'226 9.4
2016-Apr-29 04:33N 37°21' W 000°53'18210.1
2016-Apr-28 10:29N 39°54' E 001°13'1010.3
2016-Apr-28 09:33N 40°02' E 001°18'1010.5
2016-Apr-28 08:33N 40°11' E 001°25'1010.3
2016-Apr-28 07:33N 40°20' E 001°32'9 9.3
2016-Apr-28 06:33N 40°29' E 001°37'9 9.3
2016-Apr-28 05:33N 40°37' E 001°43'10 9.5
2016-Apr-28 04:32N 40°45' E 001°49'10 9.7
2016-Apr-28 03:33N 40°54' E 001°55'7 0.3
2016-Apr-27 00:25N 40°50' E 001°47'21 9.2
2016-Apr-26 22:11N 40°33' E 001°32'6 9.3
2016-Apr-26 21:33N 40°28' E 001°28'  

Dump ship's entire track history